sensor_id;sensor_type;location;lat;lon;timestamp;P1;durP1;ratioP1;P2;durP2;ratioP2
58528;SDS011;44322;52.968;5.816;2023-01-26T00:01:47;103.60;;;31.40;;
58528;SDS011;44322;52.968;5.816;2023-01-26T00:04:12;104.38;;;29.45;;
58528;SDS011;44322;52.968;5.816;2023-01-26T00:06:38;111.35;;;32.92;;
58528;SDS011;44322;52.968;5.816;2023-01-26T00:09:04;110.80;;;31.20;;
58528;SDS011;44322;52.968;5.816;2023-01-26T00:11:29;109.50;;;31.75;;
58528;SDS011;44322;52.968;5.816;2023-01-26T00:13:57;101.45;;;30.90;;
58528;SDS011;44322;52.968;5.816;2023-01-26T00:16:24;107.97;;;32.40;;
58528;SDS011;44322;52.968;5.816;2023-01-26T00:18:50;109.60;;;31.63;;
58528;SDS011;44322;52.968;5.816;2023-01-26T00:21:16;112.07;;;32.88;;
58528;SDS011;44322;52.968;5.816;2023-01-26T00:26:12;104.40;;;29.98;;
58528;SDS011;44322;52.968;5.816;2023-01-26T00:28:39;96.05;;;30.45;;
58528;SDS011;44322;52.968;5.816;2023-01-26T00:31:15;95.25;;;30.05;;
58528;SDS011;44322;52.968;5.816;2023-01-26T00:33:42;99.23;;;29.83;;
58528;SDS011;44322;52.968;5.816;2023-01-26T00:36:08;91.40;;;28.60;;
58528;SDS011;44322;52.968;5.816;2023-01-26T00:38:34;102.13;;;30.25;;
58528;SDS011;44322;52.968;5.816;2023-01-26T00:41:00;91.28;;;28.00;;
58528;SDS011;44322;52.968;5.816;2023-01-26T00:43:26;92.53;;;28.00;;
58528;SDS011;44322;52.968;5.816;2023-01-26T00:45:51;104.85;;;28.77;;
58528;SDS011;44322;52.968;5.816;2023-01-26T00:48:18;100.18;;;31.10;;
58528;SDS011;44322;52.968;5.816;2023-01-26T00:50:44;97.32;;;28.35;;
58528;SDS011;44322;52.968;5.816;2023-01-26T00:53:09;98.43;;;29.25;;
58528;SDS011;44322;52.968;5.816;2023-01-26T00:55:35;99.20;;;29.95;;
58528;SDS011;44322;52.968;5.816;2023-01-26T00:58:01;94.22;;;29.50;;
58528;SDS011;44322;52.968;5.816;2023-01-26T01:00:31;101.35;;;29.60;;
58528;SDS011;44322;52.968;5.816;2023-01-26T01:02:58;100.88;;;30.60;;
58528;SDS011;44322;52.968;5.816;2023-01-26T01:05:24;97.40;;;28.70;;
58528;SDS011;44322;52.968;5.816;2023-01-26T01:07:51;92.20;;;27.58;;
58528;SDS011;44322;52.968;5.816;2023-01-26T01:10:20;95.18;;;27.73;;
58528;SDS011;44322;52.968;5.816;2023-01-26T01:12:46;93.32;;;27.80;;
58528;SDS011;44322;52.968;5.816;2023-01-26T01:15:12;93.53;;;29.08;;
58528;SDS011;44322;52.968;5.816;2023-01-26T01:17:37;87.47;;;26.73;;
58528;SDS011;44322;52.968;5.816;2023-01-26T01:20:04;98.15;;;29.00;;
58528;SDS011;44322;52.968;5.816;2023-01-26T01:22:31;93.30;;;28.05;;
58528;SDS011;44322;52.968;5.816;2023-01-26T01:24:57;94.18;;;27.85;;
58528;SDS011;44322;52.968;5.816;2023-01-26T01:27:23;90.07;;;29.48;;
58528;SDS011;44322;52.968;5.816;2023-01-26T01:29:49;80.05;;;26.75;;
58528;SDS011;44322;52.968;5.816;2023-01-26T01:32:15;92.88;;;29.38;;
58528;SDS011;44322;52.968;5.816;2023-01-26T01:34:41;91.10;;;29.00;;
58528;SDS011;44322;52.968;5.816;2023-01-26T01:37:07;83.03;;;28.88;;
58528;SDS011;44322;52.968;5.816;2023-01-26T01:39:32;99.22;;;28.90;;
58528;SDS011;44322;52.968;5.816;2023-01-26T01:41:58;86.45;;;27.02;;
58528;SDS011;44322;52.968;5.816;2023-01-26T01:44:24;80.10;;;26.08;;
58528;SDS011;44322;52.968;5.816;2023-01-26T01:46:51;83.82;;;27.13;;
58528;SDS011;44322;52.968;5.816;2023-01-26T01:55:06;79.38;;;26.02;;
58528;SDS011;44322;52.968;5.816;2023-01-26T01:57:42;70.78;;;24.60;;
58528;SDS011;44322;52.968;5.816;2023-01-26T02:00:19;85.10;;;27.15;;
58528;SDS011;44322;52.968;5.816;2023-01-26T02:02:49;90.10;;;25.85;;
58528;SDS011;44322;52.968;5.816;2023-01-26T02:08:07;88.32;;;27.50;;
58528;SDS011;44322;52.968;5.816;2023-01-26T02:10:34;85.00;;;27.08;;
58528;SDS011;44322;52.968;5.816;2023-01-26T02:13:00;87.18;;;26.20;;
58528;SDS011;44322;52.968;5.816;2023-01-26T02:15:26;85.22;;;25.98;;
58528;SDS011;44322;52.968;5.816;2023-01-26T02:17:51;86.20;;;26.20;;
58528;SDS011;44322;52.968;5.816;2023-01-26T02:23:11;75.93;;;23.58;;
58528;SDS011;44322;52.968;5.816;2023-01-26T02:26:06;81.38;;;26.50;;
58528;SDS011;44322;52.968;5.816;2023-01-26T02:28:33;79.68;;;24.40;;
58528;SDS011;44322;52.968;5.816;2023-01-26T02:30:59;74.40;;;23.50;;
58528;SDS011;44322;52.968;5.816;2023-01-26T02:33:26;88.05;;;25.67;;
58528;SDS011;44322;52.968;5.816;2023-01-26T02:35:57;78.45;;;23.65;;
58528;SDS011;44322;52.968;5.816;2023-01-26T02:38:23;66.97;;;21.70;;
58528;SDS011;44322;52.968;5.816;2023-01-26T02:40:55;80.60;;;23.85;;
58528;SDS011;44322;52.968;5.816;2023-01-26T02:43:25;75.30;;;24.15;;
58528;SDS011;44322;52.968;5.816;2023-01-26T02:45:52;76.47;;;22.00;;
58528;SDS011;44322;52.968;5.816;2023-01-26T02:48:19;80.43;;;23.17;;
58528;SDS011;44322;52.968;5.816;2023-01-26T02:51:06;70.32;;;23.10;;
58528;SDS011;44322;52.968;5.816;2023-01-26T02:53:32;75.60;;;24.33;;
58528;SDS011;44322;52.968;5.816;2023-01-26T02:55:58;73.10;;;23.67;;
58528;SDS011;44322;52.968;5.816;2023-01-26T02:58:24;74.80;;;22.13;;
58528;SDS011;44322;52.968;5.816;2023-01-26T03:00:49;62.88;;;20.77;;
58528;SDS011;44322;52.968;5.816;2023-01-26T03:03:16;72.97;;;23.17;;
58528;SDS011;44322;52.968;5.816;2023-01-26T03:06:09;72.20;;;22.77;;
58528;SDS011;44322;52.968;5.816;2023-01-26T03:08:35;75.82;;;22.45;;
58528;SDS011;44322;52.968;5.816;2023-01-26T03:11:01;69.30;;;22.55;;
58528;SDS011;44322;52.968;5.816;2023-01-26T03:13:28;71.20;;;21.05;;
58528;SDS011;44322;52.968;5.816;2023-01-26T03:15:56;77.00;;;23.75;;
58528;SDS011;44322;52.968;5.816;2023-01-26T03:18:26;74.32;;;22.73;;
58528;SDS011;44322;52.968;5.816;2023-01-26T03:21:12;70.82;;;23.00;;
58528;SDS011;44322;52.968;5.816;2023-01-26T03:24:16;65.38;;;23.73;;
58528;SDS011;44322;52.968;5.816;2023-01-26T03:27:08;68.47;;;22.30;;
58528;SDS011;44322;52.968;5.816;2023-01-26T03:29:54;68.10;;;21.97;;
58528;SDS011;44322;52.968;5.816;2023-01-26T03:32:21;74.65;;;23.58;;
58528;SDS011;44322;52.968;5.816;2023-01-26T03:34:47;64.55;;;22.27;;
58528;SDS011;44322;52.968;5.816;2023-01-26T03:37:12;71.35;;;21.10;;
58528;SDS011;44322;52.968;5.816;2023-01-26T03:39:44;74.43;;;23.40;;
58528;SDS011;44322;52.968;5.816;2023-01-26T03:42:43;75.00;;;23.75;;
58528;SDS011;44322;52.968;5.816;2023-01-26T03:45:28;73.43;;;23.17;;
58528;SDS011;44322;52.968;5.816;2023-01-26T03:48:17;78.55;;;23.52;;
58528;SDS011;44322;52.968;5.816;2023-01-26T03:51:03;81.63;;;24.70;;
58528;SDS011;44322;52.968;5.816;2023-01-26T03:53:48;81.28;;;23.95;;
58528;SDS011;44322;52.968;5.816;2023-01-26T03:56:33;78.38;;;24.73;;
58528;SDS011;44322;52.968;5.816;2023-01-26T03:59:07;70.15;;;22.25;;
58528;SDS011;44322;52.968;5.816;2023-01-26T04:01:33;81.10;;;23.75;;
58528;SDS011;44322;52.968;5.816;2023-01-26T04:04:06;76.72;;;23.40;;
58528;SDS011;44322;52.968;5.816;2023-01-26T04:06:51;66.28;;;21.33;;
58528;SDS011;44322;52.968;5.816;2023-01-26T04:09:41;64.13;;;22.13;;
58528;SDS011;44322;52.968;5.816;2023-01-26T04:12:13;79.28;;;23.63;;
58528;SDS011;44322;52.968;5.816;2023-01-26T04:14:51;74.72;;;24.48;;
58528;SDS011;44322;52.968;5.816;2023-01-26T04:17:36;71.38;;;22.17;;
58528;SDS011;44322;52.968;5.816;2023-01-26T04:20:20;65.93;;;20.75;;
58528;SDS011;44322;52.968;5.816;2023-01-26T04:23:04;73.85;;;23.98;;
58528;SDS011;44322;52.968;5.816;2023-01-26T04:25:33;64.63;;;20.00;;
58528;SDS011;44322;52.968;5.816;2023-01-26T04:27:59;77.18;;;24.60;;
58528;SDS011;44322;52.968;5.816;2023-01-26T04:30:25;83.28;;;25.42;;
58528;SDS011;44322;52.968;5.816;2023-01-26T04:32:51;67.95;;;22.48;;
58528;SDS011;44322;52.968;5.816;2023-01-26T04:35:17;71.68;;;22.35;;
58528;SDS011;44322;52.968;5.816;2023-01-26T04:37:42;72.60;;;23.17;;
58528;SDS011;44322;52.968;5.816;2023-01-26T04:40:08;82.32;;;26.42;;
58528;SDS011;44322;52.968;5.816;2023-01-26T04:42:36;64.80;;;22.15;;
58528;SDS011;44322;52.968;5.816;2023-01-26T04:45:03;82.28;;;25.75;;
58528;SDS011;44322;52.968;5.816;2023-01-26T04:47:30;85.03;;;25.90;;
58528;SDS011;44322;52.968;5.816;2023-01-26T04:49:55;78.07;;;24.83;;
58528;SDS011;44322;52.968;5.816;2023-01-26T04:52:22;78.47;;;25.08;;
58528;SDS011;44322;52.968;5.816;2023-01-26T04:54:48;90.65;;;26.45;;
58528;SDS011;44322;52.968;5.816;2023-01-26T04:57:14;96.50;;;25.42;;
58528;SDS011;44322;52.968;5.816;2023-01-26T04:59:44;97.88;;;28.25;;
58528;SDS011;44322;52.968;5.816;2023-01-26T05:02:09;94.68;;;27.08;;
58528;SDS011;44322;52.968;5.816;2023-01-26T05:04:35;91.75;;;27.35;;
58528;SDS011;44322;52.968;5.816;2023-01-26T05:07:01;93.85;;;26.30;;
58528;SDS011;44322;52.968;5.816;2023-01-26T05:09:29;94.68;;;27.35;;
58528;SDS011;44322;52.968;5.816;2023-01-26T05:12:17;106.32;;;28.55;;
58528;SDS011;44322;52.968;5.816;2023-01-26T05:15:16;95.20;;;28.27;;
58528;SDS011;44322;52.968;5.816;2023-01-26T05:17:52;102.47;;;29.70;;
58528;SDS011;44322;52.968;5.816;2023-01-26T05:20:44;114.90;;;29.85;;
58528;SDS011;44322;52.968;5.816;2023-01-26T05:23:21;105.72;;;30.25;;
58528;SDS011;44322;52.968;5.816;2023-01-26T05:26:06;110.10;;;30.73;;
58528;SDS011;44322;52.968;5.816;2023-01-26T05:28:42;107.00;;;31.02;;
58528;SDS011;44322;52.968;5.816;2023-01-26T05:31:07;99.07;;;29.05;;
58528;SDS011;44322;52.968;5.816;2023-01-26T05:33:33;109.80;;;29.45;;
58528;SDS011;44322;52.968;5.816;2023-01-26T05:36:02;98.95;;;27.90;;
58528;SDS011;44322;52.968;5.816;2023-01-26T05:38:32;87.45;;;24.83;;
58528;SDS011;44322;52.968;5.816;2023-01-26T05:40:59;89.07;;;25.83;;
58528;SDS011;44322;52.968;5.816;2023-01-26T05:43:25;85.93;;;24.33;;
58528;SDS011;44322;52.968;5.816;2023-01-26T05:46:08;82.50;;;23.98;;
58528;SDS011;44322;52.968;5.816;2023-01-26T05:48:36;89.55;;;23.70;;
58528;SDS011;44322;52.968;5.816;2023-01-26T05:51:02;85.25;;;23.08;;
58528;SDS011;44322;52.968;5.816;2023-01-26T05:53:27;82.00;;;21.65;;
58528;SDS011;44322;52.968;5.816;2023-01-26T05:55:53;78.90;;;20.77;;
58528;SDS011;44322;52.968;5.816;2023-01-26T05:58:22;86.75;;;20.00;;
58528;SDS011;44322;52.968;5.816;2023-01-26T06:00:47;64.68;;;18.42;;
58528;SDS011;44322;52.968;5.816;2023-01-26T06:03:20;67.75;;;17.02;;
58528;SDS011;44322;52.968;5.816;2023-01-26T06:05:51;60.92;;;15.77;;
58528;SDS011;44322;52.968;5.816;2023-01-26T06:08:24;70.72;;;15.85;;
58528;SDS011;44322;52.968;5.816;2023-01-26T06:11:08;56.55;;;13.15;;
58528;SDS011;44322;52.968;5.816;2023-01-26T06:13:46;47.40;;;12.00;;
58528;SDS011;44322;52.968;5.816;2023-01-26T06:16:22;48.22;;;10.93;;
58528;SDS011;44322;52.968;5.816;2023-01-26T06:18:48;42.88;;;8.13;;
58528;SDS011;44322;52.968;5.816;2023-01-26T06:21:14;43.97;;;7.70;;
58528;SDS011;44322;52.968;5.816;2023-01-26T06:23:41;35.25;;;6.47;;
58528;SDS011;44322;52.968;5.816;2023-01-26T06:26:07;30.65;;;5.60;;
58528;SDS011;44322;52.968;5.816;2023-01-26T06:28:33;29.83;;;5.68;;
58528;SDS011;44322;52.968;5.816;2023-01-26T06:31:01;28.88;;;4.65;;
58528;SDS011;44322;52.968;5.816;2023-01-26T06:33:28;27.50;;;4.85;;
58528;SDS011;44322;52.968;5.816;2023-01-26T06:35:54;33.45;;;5.82;;
58528;SDS011;44322;52.968;5.816;2023-01-26T06:38:20;28.63;;;3.97;;
58528;SDS011;44322;52.968;5.816;2023-01-26T06:40:47;31.08;;;4.95;;
58528;SDS011;44322;52.968;5.816;2023-01-26T06:43:13;32.63;;;4.90;;
58528;SDS011;44322;52.968;5.816;2023-01-26T06:45:38;28.08;;;4.35;;
58528;SDS011;44322;52.968;5.816;2023-01-26T06:48:04;30.05;;;4.45;;
58528;SDS011;44322;52.968;5.816;2023-01-26T06:50:31;31.80;;;4.57;;
58528;SDS011;44322;52.968;5.816;2023-01-26T06:52:58;30.45;;;4.03;;
58528;SDS011;44322;52.968;5.816;2023-01-26T06:55:45;29.70;;;4.53;;
58528;SDS011;44322;52.968;5.816;2023-01-26T06:58:24;30.50;;;3.97;;
58528;SDS011;44322;52.968;5.816;2023-01-26T07:01:16;29.83;;;4.28;;
58528;SDS011;44322;52.968;5.816;2023-01-26T07:03:46;29.25;;;4.88;;
58528;SDS011;44322;52.968;5.816;2023-01-26T07:06:12;33.00;;;3.95;;
58528;SDS011;44322;52.968;5.816;2023-01-26T07:08:38;29.23;;;4.20;;
58528;SDS011;44322;52.968;5.816;2023-01-26T07:11:05;30.38;;;4.07;;
58528;SDS011;44322;52.968;5.816;2023-01-26T07:13:31;30.77;;;4.80;;
58528;SDS011;44322;52.968;5.816;2023-01-26T07:16:04;33.83;;;4.35;;
58528;SDS011;44322;52.968;5.816;2023-01-26T07:18:34;33.60;;;4.50;;
58528;SDS011;44322;52.968;5.816;2023-01-26T07:21:02;31.45;;;4.32;;
58528;SDS011;44322;52.968;5.816;2023-01-26T07:23:28;32.13;;;4.43;;
58528;SDS011;44322;52.968;5.816;2023-01-26T07:26:03;28.83;;;4.38;;
58528;SDS011;44322;52.968;5.816;2023-01-26T07:28:29;23.00;;;4.40;;
58528;SDS011;44322;52.968;5.816;2023-01-26T07:31:02;22.75;;;4.80;;
58528;SDS011;44322;52.968;5.816;2023-01-26T07:33:28;26.05;;;4.45;;
58528;SDS011;44322;52.968;5.816;2023-01-26T07:35:55;35.75;;;5.15;;
58528;SDS011;44322;52.968;5.816;2023-01-26T07:38:20;27.13;;;4.35;;
58528;SDS011;44322;52.968;5.816;2023-01-26T07:40:47;22.05;;;3.78;;
58528;SDS011;44322;52.968;5.816;2023-01-26T07:43:12;28.02;;;4.20;;
58528;SDS011;44322;52.968;5.816;2023-01-26T07:45:51;22.75;;;4.30;;
58528;SDS011;44322;52.968;5.816;2023-01-26T07:48:18;27.83;;;4.47;;
58528;SDS011;44322;52.968;5.816;2023-01-26T07:50:45;37.35;;;5.13;;
58528;SDS011;44322;52.968;5.816;2023-01-26T07:53:14;27.25;;;4.68;;
58528;SDS011;44322;52.968;5.816;2023-01-26T07:55:43;27.13;;;4.60;;
58528;SDS011;44322;52.968;5.816;2023-01-26T07:58:10;23.10;;;4.47;;
58528;SDS011;44322;52.968;5.816;2023-01-26T08:00:36;26.40;;;4.63;;
58528;SDS011;44322;52.968;5.816;2023-01-26T08:03:02;25.35;;;4.88;;
58528;SDS011;44322;52.968;5.816;2023-01-26T08:05:28;23.23;;;4.38;;
58528;SDS011;44322;52.968;5.816;2023-01-26T08:07:59;47.28;;;8.18;;
58528;SDS011;44322;52.968;5.816;2023-01-26T08:10:26;73.10;;;10.23;;
58528;SDS011;44322;52.968;5.816;2023-01-26T08:12:57;64.03;;;10.25;;
58528;SDS011;44322;52.968;5.816;2023-01-26T08:15:23;35.03;;;5.85;;
58528;SDS011;44322;52.968;5.816;2023-01-26T08:17:49;45.42;;;6.63;;
58528;SDS011;44322;52.968;5.816;2023-01-26T08:24:57;30.98;;;4.90;;
58528;SDS011;44322;52.968;5.816;2023-01-26T08:27:22;24.02;;;4.82;;
58528;SDS011;44322;52.968;5.816;2023-01-26T08:29:51;28.90;;;4.55;;
58528;SDS011;44322;52.968;5.816;2023-01-26T08:33:31;24.42;;;4.20;;
58528;SDS011;44322;52.968;5.816;2023-01-26T08:36:06;27.65;;;4.28;;
58528;SDS011;44322;52.968;5.816;2023-01-26T08:38:34;23.35;;;3.90;;
58528;SDS011;44322;52.968;5.816;2023-01-26T08:44:49;21.83;;;4.70;;
58528;SDS011;44322;52.968;5.816;2023-01-26T08:47:17;23.98;;;4.03;;
58528;SDS011;44322;52.968;5.816;2023-01-26T08:49:43;34.42;;;5.82;;
58528;SDS011;44322;52.968;5.816;2023-01-26T08:52:08;25.63;;;4.10;;
58528;SDS011;44322;52.968;5.816;2023-01-26T08:54:34;27.98;;;4.50;;
58528;SDS011;44322;52.968;5.816;2023-01-26T08:57:00;29.50;;;5.00;;
58528;SDS011;44322;52.968;5.816;2023-01-26T09:02:20;24.55;;;4.85;;
58528;SDS011;44322;52.968;5.816;2023-01-26T09:05:08;35.67;;;5.70;;
58528;SDS011;44322;52.968;5.816;2023-01-26T09:07:34;26.58;;;4.20;;
58528;SDS011;44322;52.968;5.816;2023-01-26T09:09:59;27.90;;;4.40;;
58528;SDS011;44322;52.968;5.816;2023-01-26T09:12:28;31.83;;;5.03;;
58528;SDS011;44322;52.968;5.816;2023-01-26T09:14:54;34.10;;;4.75;;
58528;SDS011;44322;52.968;5.816;2023-01-26T09:17:19;32.17;;;4.50;;
58528;SDS011;44322;52.968;5.816;2023-01-26T09:19:45;23.60;;;4.28;;
58528;SDS011;44322;52.968;5.816;2023-01-26T09:22:11;24.48;;;4.18;;
58528;SDS011;44322;52.968;5.816;2023-01-26T09:24:36;24.48;;;4.00;;
58528;SDS011;44322;52.968;5.816;2023-01-26T09:27:02;25.23;;;4.28;;
58528;SDS011;44322;52.968;5.816;2023-01-26T09:29:27;24.13;;;4.35;;
58528;SDS011;44322;52.968;5.816;2023-01-26T09:31:53;29.80;;;4.78;;
58528;SDS011;44322;52.968;5.816;2023-01-26T09:34:19;32.33;;;4.43;;
58528;SDS011;44322;52.968;5.816;2023-01-26T09:36:44;27.50;;;4.57;;
58528;SDS011;44322;52.968;5.816;2023-01-26T09:39:10;29.50;;;4.07;;
58528;SDS011;44322;52.968;5.816;2023-01-26T09:41:50;23.10;;;3.55;;
58528;SDS011;44322;52.968;5.816;2023-01-26T09:44:23;28.17;;;4.57;;
58528;SDS011;44322;52.968;5.816;2023-01-26T09:46:53;27.42;;;4.80;;
58528;SDS011;44322;52.968;5.816;2023-01-26T09:49:45;27.92;;;3.72;;
58528;SDS011;44322;52.968;5.816;2023-01-26T09:52:26;25.77;;;4.82;;
58528;SDS011;44322;52.968;5.816;2023-01-26T09:54:59;25.88;;;4.35;;
58528;SDS011;44322;52.968;5.816;2023-01-26T09:57:49;24.58;;;4.78;;
58528;SDS011;44322;52.968;5.816;2023-01-26T10:00:31;25.70;;;3.90;;
58528;SDS011;44322;52.968;5.816;2023-01-26T10:08:07;28.05;;;3.75;;
58528;SDS011;44322;52.968;5.816;2023-01-26T10:10:39;24.50;;;3.45;;
58528;SDS011;44322;52.968;5.816;2023-01-26T10:13:12;24.95;;;3.25;;
58528;SDS011;44322;52.968;5.816;2023-01-26T10:15:47;24.20;;;3.65;;
58528;SDS011;44322;52.968;5.816;2023-01-26T11:06:36;17.88;;;3.60;;
58528;SDS011;44322;52.968;5.816;2023-01-26T11:22:29;16.52;;;2.70;;
58528;SDS011;44322;52.968;5.816;2023-01-26T11:30:41;18.50;;;2.67;;
58528;SDS011;44322;52.968;5.816;2023-01-26T11:33:29;17.00;;;3.00;;
58528;SDS011;44322;52.968;5.816;2023-01-26T11:41:47;13.93;;;2.60;;
58528;SDS011;44322;52.968;5.816;2023-01-26T11:44:40;14.50;;;2.85;;
58528;SDS011;44322;52.968;5.816;2023-01-26T12:00:18;21.45;;;3.58;;
58528;SDS011;44322;52.968;5.816;2023-01-26T12:02:52;19.38;;;2.33;;
58528;SDS011;44322;52.968;5.816;2023-01-26T12:05:28;16.65;;;2.47;;
58528;SDS011;44322;52.968;5.816;2023-01-26T12:13:49;17.92;;;2.53;;
58528;SDS011;44322;52.968;5.816;2023-01-26T12:16:26;11.50;;;2.00;;
58528;SDS011;44322;52.968;5.816;2023-01-26T12:19:13;15.18;;;2.42;;
58528;SDS011;44322;52.968;5.816;2023-01-26T12:22:14;14.43;;;2.63;;
58528;SDS011;44322;52.968;5.816;2023-01-26T12:33:19;10.57;;;1.90;;
58528;SDS011;44322;52.968;5.816;2023-01-26T12:35:49;11.50;;;1.70;;
58528;SDS011;44322;52.968;5.816;2023-01-26T12:38:35;6.50;;;1.50;;
58528;SDS011;44322;52.968;5.816;2023-01-26T12:46:46;6.18;;;1.83;;
58528;SDS011;44322;52.968;5.816;2023-01-26T12:49:19;10.55;;;1.95;;
58528;SDS011;44322;52.968;5.816;2023-01-26T12:51:53;8.00;;;2.13;;
58528;SDS011;44322;52.968;5.816;2023-01-26T12:56:58;6.68;;;1.25;;
58528;SDS011;44322;52.968;5.816;2023-01-26T12:59:36;10.23;;;1.88;;
58528;SDS011;44322;52.968;5.816;2023-01-26T13:02:23;9.10;;;1.25;;
58528;SDS011;44322;52.968;5.816;2023-01-26T13:04:52;8.80;;;1.40;;
58528;SDS011;44322;52.968;5.816;2023-01-26T13:07:25;10.13;;;1.92;;
58528;SDS011;44322;52.968;5.816;2023-01-26T13:10:34;7.13;;;2.05;;
58528;SDS011;44322;52.968;5.816;2023-01-26T13:12:54;12.52;;;1.58;;
58528;SDS011;44322;52.968;5.816;2023-01-26T13:15:23;13.60;;;2.17;;
58528;SDS011;44322;52.968;5.816;2023-01-26T13:22:52;12.88;;;1.85;;
58528;SDS011;44322;52.968;5.816;2023-01-26T13:25:28;9.02;;;1.80;;
58528;SDS011;44322;52.968;5.816;2023-01-26T13:28:00;11.13;;;1.85;;
58528;SDS011;44322;52.968;5.816;2023-01-26T13:33:22;14.63;;;1.80;;
58528;SDS011;44322;52.968;5.816;2023-01-26T13:35:50;12.40;;;1.80;;
58528;SDS011;44322;52.968;5.816;2023-01-26T13:38:39;10.68;;;1.40;;
58528;SDS011;44322;52.968;5.816;2023-01-26T13:41:18;11.13;;;2.10;;
58528;SDS011;44322;52.968;5.816;2023-01-26T13:44:05;15.88;;;3.55;;
58528;SDS011;44322;52.968;5.816;2023-01-26T13:46:44;11.32;;;2.00;;
58528;SDS011;44322;52.968;5.816;2023-01-26T13:49:23;11.20;;;1.70;;
58528;SDS011;44322;52.968;5.816;2023-01-26T13:51:52;7.30;;;1.48;;
58528;SDS011;44322;52.968;5.816;2023-01-26T13:54:22;8.38;;;1.40;;
58528;SDS011;44322;52.968;5.816;2023-01-26T13:57:02;10.45;;;1.95;;
58528;SDS011;44322;52.968;5.816;2023-01-26T13:59:33;8.30;;;1.90;;
58528;SDS011;44322;52.968;5.816;2023-01-26T14:01:59;11.38;;;1.75;;
58528;SDS011;44322;52.968;5.816;2023-01-26T14:04:26;11.63;;;1.92;;
58528;SDS011;44322;52.968;5.816;2023-01-26T14:09:24;10.90;;;1.90;;
58528;SDS011;44322;52.968;5.816;2023-01-26T14:12:04;9.00;;;1.67;;
58528;SDS011;44322;52.968;5.816;2023-01-26T14:14:32;11.23;;;1.75;;
58528;SDS011;44322;52.968;5.816;2023-01-26T14:17:00;7.72;;;1.52;;
58528;SDS011;44322;52.968;5.816;2023-01-26T14:19:31;5.05;;;1.38;;
58528;SDS011;44322;52.968;5.816;2023-01-26T14:22:09;6.88;;;1.73;;
58528;SDS011;44322;52.968;5.816;2023-01-26T14:24:37;6.18;;;1.40;;
58528;SDS011;44322;52.968;5.816;2023-01-26T14:27:26;10.90;;;1.63;;
58528;SDS011;44322;52.968;5.816;2023-01-26T14:29:58;8.43;;;1.63;;
58528;SDS011;44322;52.968;5.816;2023-01-26T14:32:24;9.18;;;1.70;;
58528;SDS011;44322;52.968;5.816;2023-01-26T14:34:57;10.80;;;1.80;;
58528;SDS011;44322;52.968;5.816;2023-01-26T14:37:24;10.23;;;1.50;;
58528;SDS011;44322;52.968;5.816;2023-01-26T14:42:43;8.70;;;1.63;;
58528;SDS011;44322;52.968;5.816;2023-01-26T14:45:12;13.10;;;2.15;;
58528;SDS011;44322;52.968;5.816;2023-01-26T14:47:39;10.25;;;1.67;;
58528;SDS011;44322;52.968;5.816;2023-01-26T14:50:11;10.77;;;1.60;;
58528;SDS011;44322;52.968;5.816;2023-01-26T14:52:41;9.30;;;2.10;;
58528;SDS011;44322;52.968;5.816;2023-01-26T14:58:00;13.82;;;2.15;;
58528;SDS011;44322;52.968;5.816;2023-01-26T15:00:27;14.20;;;1.85;;
58528;SDS011;44322;52.968;5.816;2023-01-26T15:02:56;11.85;;;1.95;;
58528;SDS011;44322;52.968;5.816;2023-01-26T15:05:29;10.00;;;2.00;;
58528;SDS011;44322;52.968;5.816;2023-01-26T15:07:57;11.48;;;1.95;;
58528;SDS011;44322;52.968;5.816;2023-01-26T15:13:17;10.80;;;1.90;;
58528;SDS011;44322;52.968;5.816;2023-01-26T15:15:47;9.95;;;1.95;;
58528;SDS011;44322;52.968;5.816;2023-01-26T15:18:24;13.05;;;1.90;;
58528;SDS011;44322;52.968;5.816;2023-01-26T15:20:57;7.05;;;1.60;;
58528;SDS011;44322;52.968;5.816;2023-01-26T15:23:26;12.93;;;2.20;;
58528;SDS011;44322;52.968;5.816;2023-01-26T15:26:06;12.35;;;2.33;;
58528;SDS011;44322;52.968;5.816;2023-01-26T15:28:39;12.98;;;2.22;;
58528;SDS011;44322;52.968;5.816;2023-01-26T15:31:05;13.95;;;2.22;;
58528;SDS011;44322;52.968;5.816;2023-01-26T15:33:48;12.55;;;2.13;;
58528;SDS011;44322;52.968;5.816;2023-01-26T15:41:37;11.45;;;2.17;;
58528;SDS011;44322;52.968;5.816;2023-01-26T15:44:03;9.45;;;2.38;;
58528;SDS011;44322;52.968;5.816;2023-01-26T15:46:29;13.93;;;2.50;;
58528;SDS011;44322;52.968;5.816;2023-01-26T15:48:54;13.60;;;2.58;;
58528;SDS011;44322;52.968;5.816;2023-01-26T15:51:20;15.43;;;2.42;;
58528;SDS011;44322;52.968;5.816;2023-01-26T15:53:46;15.50;;;2.22;;
58528;SDS011;44322;52.968;5.816;2023-01-26T15:56:12;13.35;;;2.20;;
58528;SDS011;44322;52.968;5.816;2023-01-26T15:58:39;11.18;;;3.38;;
58528;SDS011;44322;52.968;5.816;2023-01-26T16:01:05;12.40;;;3.67;;
58528;SDS011;44322;52.968;5.816;2023-01-26T16:03:32;12.93;;;2.33;;
58528;SDS011;44322;52.968;5.816;2023-01-26T16:05:57;12.07;;;2.25;;
58528;SDS011;44322;52.968;5.816;2023-01-26T16:08:23;13.30;;;2.22;;
58528;SDS011;44322;52.968;5.816;2023-01-26T16:10:49;12.85;;;2.20;;
58528;SDS011;44322;52.968;5.816;2023-01-26T16:13:15;10.98;;;2.13;;
58528;SDS011;44322;52.968;5.816;2023-01-26T16:18:08;14.25;;;3.05;;
58528;SDS011;44322;52.968;5.816;2023-01-26T16:20:35;12.00;;;2.63;;
58528;SDS011;44322;52.968;5.816;2023-01-26T16:23:01;10.88;;;2.50;;
58528;SDS011;44322;52.968;5.816;2023-01-26T16:25:27;14.23;;;2.85;;
58528;SDS011;44322;52.968;5.816;2023-01-26T16:27:55;17.30;;;2.78;;
58528;SDS011;44322;52.968;5.816;2023-01-26T16:30:21;14.70;;;2.40;;
58528;SDS011;44322;52.968;5.816;2023-01-26T16:32:48;10.63;;;2.38;;
58528;SDS011;44322;52.968;5.816;2023-01-26T16:35:16;18.77;;;3.15;;
58528;SDS011;44322;52.968;5.816;2023-01-26T16:37:43;18.90;;;2.65;;
58528;SDS011;44322;52.968;5.816;2023-01-26T16:40:10;15.70;;;2.50;;
58528;SDS011;44322;52.968;5.816;2023-01-26T16:42:41;11.32;;;2.50;;
58528;SDS011;44322;52.968;5.816;2023-01-26T16:45:13;15.95;;;2.85;;
58528;SDS011;44322;52.968;5.816;2023-01-26T16:47:41;13.45;;;2.58;;
58528;SDS011;44322;52.968;5.816;2023-01-26T16:50:07;17.42;;;2.42;;
58528;SDS011;44322;52.968;5.816;2023-01-26T16:52:33;17.45;;;3.08;;
58528;SDS011;44322;52.968;5.816;2023-01-26T16:54:59;10.18;;;2.95;;
58528;SDS011;44322;52.968;5.816;2023-01-26T16:57:25;16.40;;;3.38;;
58528;SDS011;44322;52.968;5.816;2023-01-26T16:59:50;10.82;;;2.20;;
58528;SDS011;44322;52.968;5.816;2023-01-26T17:02:20;16.17;;;2.40;;
58528;SDS011;44322;52.968;5.816;2023-01-26T17:04:51;15.88;;;2.50;;
58528;SDS011;44322;52.968;5.816;2023-01-26T17:07:16;17.88;;;2.70;;
58528;SDS011;44322;52.968;5.816;2023-01-26T17:45:50;13.68;;;2.83;;
58528;SDS011;44322;52.968;5.816;2023-01-26T17:48:16;17.88;;;2.55;;
58528;SDS011;44322;52.968;5.816;2023-01-26T17:50:48;18.92;;;3.42;;
58528;SDS011;44322;52.968;5.816;2023-01-26T17:53:15;15.05;;;2.90;;
58528;SDS011;44322;52.968;5.816;2023-01-26T17:55:52;12.63;;;2.50;;
58528;SDS011;44322;52.968;5.816;2023-01-26T17:58:18;18.95;;;3.30;;
58528;SDS011;44322;52.968;5.816;2023-01-26T18:00:44;14.90;;;2.22;;
58528;SDS011;44322;52.968;5.816;2023-01-26T18:03:10;19.83;;;2.83;;
58528;SDS011;44322;52.968;5.816;2023-01-26T18:05:36;13.18;;;2.50;;
58528;SDS011;44322;52.968;5.816;2023-01-26T18:08:02;17.92;;;2.90;;
58528;SDS011;44322;52.968;5.816;2023-01-26T18:10:28;19.98;;;2.90;;
58528;SDS011;44322;52.968;5.816;2023-01-26T18:12:56;15.80;;;2.40;;